Terminal Aerodrome Forecast
Issued by NWS

Home | Current Version | Previous Version | Text Only | Print | Product List | Glossary On
Versions: 1 2 3 4 5 6 7 8 9 10 11 12 13 14 15 16 17 18 19 20 21 22 23 24
000
FTPQ31 PGUM 241729
TAFGUM
TAF

TAF
PTYA 241729Z 2418/2518 05011KT P6SM VCSH SCT016 BKN130
      TEMPO 2418/2422 05011G22KT 3SM SHRA SCT014 BKN025=

USA.gov is the U.S. government's official web portal to all federal, state and local government web resources and services.